Time;durP1;ratioP1;P1;durP2;ratioP2;P2;SDS_P1;SDS_P2;PMS_P1;PMS_P2;Temp;Humidity;BMP_temperature;BMP_pressure;BME280_temperature;BME280_humidity;BME280_pressure;Samples;Min_cycle;Max_cycle;Signal;HPM_P1;HPM_P2
2023/05/14 00:01:50;;;;;;;3.50;1.73;;;11.90;99.90;;;;;;5073469;28;20535;-77
2023/05/14 00:04:18;;;;;;;1.77;1.40;;;11.90;99.90;;;;;;5073891;28;20481;-77
2023/05/14 00:06:46;;;;;;;1.83;1.50;;;11.90;99.90;;;;;;5073960;28;20449;-76
2023/05/14 00:09:13;;;;;;;2.60;1.73;;;11.90;99.90;;;;;;5073921;28;20449;-77
2023/05/14 00:11:40;;;;;;;3.83;1.87;;;11.90;99.90;;;;;;5073752;28;20480;-77
2023/05/14 00:14:06;;;;;;;3.80;2.33;;;11.90;99.90;;;;;;5073794;28;20514;-77
2023/05/14 00:16:33;;;;;;;4.30;2.47;;;11.90;99.90;;;;;;5073861;28;20446;-77
2023/05/14 00:19:00;;;;;;;3.30;2.47;;;11.90;99.90;;;;;;5073780;28;20450;-77
2023/05/14 00:21:27;;;;;;;3.80;2.80;;;11.90;99.90;;;;;;5073396;28;20894;-77
2023/05/14 00:23:55;;;;;;;2.83;2.17;;;11.90;99.90;;;;;;5073323;28;20907;-77
2023/05/14 00:26:21;;;;;;;3.33;2.63;;;11.90;99.90;;;;;;5073642;28;20456;-77
2023/05/14 00:28:48;;;;;;;2.03;1.90;;;11.90;99.90;;;;;;5073613;28;20445;-77
2023/05/14 00:31:15;;;;;;;2.40;2.10;;;11.90;99.90;;;;;;5073273;28;20810;-77
2023/05/14 00:33:42;;;;;;;5.33;2.73;;;11.80;99.90;;;;;;5073479;28;20548;-77
2023/05/14 00:36:09;;;;;;;5.80;2.07;;;11.80;99.90;;;;;;5073496;28;20465;-77
2023/05/14 00:38:35;;;;;;;6.90;3.33;;;11.80;99.90;;;;;;5073531;28;20449;-77
2023/05/14 00:41:04;;;;;;;3.30;2.23;;;11.80;99.90;;;;;;5073518;28;20860;-77
2023/05/14 00:43:32;;;;;;;2.13;1.90;;;11.80;99.90;;;;;;5073417;28;20474;-77
2023/05/14 00:45:58;;;;;;;2.23;1.97;;;11.80;99.90;;;;;;5073066;28;20460;-77
2023/05/14 00:48:25;;;;;;;2.67;1.70;;;11.80;99.90;;;;;;5073425;28;20490;-77
2023/05/14 00:50:52;;;;;;;2.67;2.47;;;11.80;99.90;;;;;;5072929;28;21008;-77
2023/05/14 00:53:20;;;;;;;2.40;2.10;;;11.80;99.90;;;;;;5073299;28;20492;-77
2023/05/14 00:55:48;;;;;;;4.73;2.27;;;11.80;99.90;;;;;;5073037;28;20441;-77
2023/05/14 00:58:18;;;;;;;3.73;2.37;;;11.80;99.90;;;;;;5073190;28;20491;-77
2023/05/14 01:00:45;;;;;;;6.07;2.73;;;11.70;99.90;;;;;;5073284;28;20446;-77
2023/05/14 01:03:11;;;;;;;2.17;1.93;;;11.70;99.90;;;;;;5072805;28;20496;-77
2023/05/14 01:05:47;;;;;;;3.73;1.67;;;11.70;99.90;;;;;;5073205;28;20438;-77
2023/05/14 01:08:24;;;;;;;4.53;2.20;;;11.70;99.90;;;;;;5073261;28;20437;-77
2023/05/14 01:10:55;;;;;;;4.07;2.63;;;11.70;99.90;;;;;;5073157;28;20476;-77
2023/05/14 01:13:29;;;;;;;3.57;2.17;;;11.70;99.90;;;;;;5073021;28;20485;-77
2023/05/14 01:15:59;;;;;;;4.77;3.03;;;11.70;99.90;;;;;;5073137;28;20441;-77
2023/05/14 01:18:28;;;;;;;2.00;1.80;;;11.70;99.90;;;;;;5073110;28;20541;-77
2023/05/14 01:20:55;;;;;;;3.50;2.27;;;11.70;99.90;;;;;;5072777;28;20964;-77
2023/05/14 01:23:23;;;;;;;6.10;2.43;;;11.70;99.90;;;;;;5073012;28;20469;-77
2023/05/14 01:25:49;;;;;;;2.87;2.50;;;11.70;99.90;;;;;;5073072;28;20453;-77
2023/05/14 01:28:18;;;;;;;5.30;2.50;;;11.70;99.90;;;;;;5073056;28;20446;-77
2023/05/14 01:30:51;;;;;;;5.50;3.10;;;11.70;99.90;;;;;;5072609;28;20987;-77
2023/05/14 01:33:19;;;;;;;3.10;2.80;;;11.70;99.90;;;;;;5073051;28;20469;-77
2023/05/14 01:35:46;;;;;;;6.03;3.43;;;11.70;99.90;;;;;;5072660;28;20964;-77
2023/05/14 01:38:17;;;;;;;3.10;2.50;;;11.70;99.90;;;;;;5072929;28;20503;-77
2023/05/14 01:40:46;;;;;;;4.40;2.50;;;11.70;99.90;;;;;;5073751;28;20834;-77
2023/05/14 01:43:13;;;;;;;3.67;2.47;;;11.70;99.90;;;;;;5072769;28;20478;-77
2023/05/14 01:45:40;;;;;;;1.63;1.50;;;11.60;99.90;;;;;;5072860;28;20563;-77
2023/05/14 01:48:07;;;;;;;6.57;2.70;;;11.60;99.90;;;;;;5072808;28;20446;-77
2023/05/14 01:50:33;;;;;;;3.43;2.20;;;11.70;99.90;;;;;;5072350;28;20449;-77
2023/05/14 01:53:00;;;;;;;4.60;1.90;;;11.60;99.90;;;;;;5072707;28;20480;-77
2023/05/14 01:55:27;;;;;;;4.13;2.00;;;11.70;99.90;;;;;;5072988;28;20441;-77
2023/05/14 01:57:55;;;;;;;4.70;2.67;;;11.60;99.90;;;;;;5072409;28;20960;-77
2023/05/14 02:00:23;;;;;;;2.93;2.20;;;11.60;99.90;;;;;;5072745;28;20855;-77
2023/05/14 02:02:50;;;;;;;3.20;2.00;;;11.60;99.90;;;;;;5072201;28;20517;-77
2023/05/14 02:05:17;;;;;;;2.63;2.43;;;11.60;99.90;;;;;;5072666;28;20441;-77
2023/05/14 02:07:44;;;;;;;3.43;2.40;;;11.60;99.90;;;;;;5072621;28;20450;-77
2023/05/14 02:10:11;;;;;;;1.67;1.57;;;11.60;99.90;;;;;;5074921;28;20453;-77
2023/05/14 02:12:37;;;;;;;4.47;2.00;;;11.60;99.90;;;;;;5076037;28;20937;-77
2023/05/14 02:15:07;;;;;;;4.40;2.70;;;11.60;99.90;;;;;;5076247;28;20503;-77
2023/05/14 02:17:34;;;;;;;5.40;2.57;;;11.60;99.90;;;;;;5076064;28;20452;-77
2023/05/14 02:20:01;;;;;;;3.83;2.47;;;11.50;99.90;;;;;;5076055;28;20452;-76
2023/05/14 02:22:27;;;;;;;3.27;2.00;;;11.50;99.90;;;;;;5075908;28;20464;-77
2023/05/14 02:24:54;;;;;;;8.87;3.87;;;11.60;99.90;;;;;;5075945;28;20499;-77
2023/05/14 02:27:21;;;;;;;6.33;1.97;;;11.40;99.90;;;;;;5075554;28;20465;-77
2023/05/14 02:29:48;;;;;;;3.17;1.90;;;11.40;99.90;;;;;;5075875;28;20445;-77
2023/05/14 02:32:16;;;;;;;3.80;2.37;;;11.30;99.90;;;;;;5075679;28;20481;-77
2023/05/14 02:34:42;;;;;;;2.97;2.30;;;11.20;99.90;;;;;;5075729;28;20457;-77
2023/05/14 02:37:09;;;;;;;3.13;2.60;;;11.20;99.90;;;;;;5075714;28;20445;-77
2023/05/14 02:39:36;;;;;;;2.97;2.17;;;11.20;99.90;;;;;;5076199;28;20441;-77
2023/05/14 02:42:02;;;;;;;4.70;2.27;;;11.10;99.90;;;;;;5075617;28;20441;-77
2023/05/14 02:44:30;;;;;;;2.70;2.40;;;11.10;99.90;;;;;;5075174;28;20981;-77
2023/05/14 02:46:57;;;;;;;2.70;2.07;;;11.10;99.90;;;;;;5075551;28;20450;-77
2023/05/14 02:49:25;;;;;;;5.30;2.40;;;11.00;99.90;;;;;;5076022;28;20461;-77
2023/05/14 02:51:53;;;;;;;3.10;2.30;;;11.00;99.90;;;;;;5075352;28;20477;-77
2023/05/14 02:54:19;;;;;;;4.20;2.73;;;11.00;99.90;;;;;;5074992;28;20981;-77
2023/05/14 02:56:46;;;;;;;4.53;2.37;;;10.90;99.90;;;;;;5075309;28;20457;-77
2023/05/14 02:59:13;;;;;;;3.40;3.20;;;10.90;99.90;;;;;;5075288;28;20862;-77
2023/05/14 03:01:39;;;;;;;5.20;3.33;;;10.90;99.90;;;;;;5075223;28;20481;-77
2023/05/14 03:04:07;;;;;;;2.50;1.87;;;11.00;99.90;;;;;;5075135;28;20476;-77
2023/05/14 03:06:35;;;;;;;3.93;2.97;;;11.00;99.90;;;;;;5075131;28;21025;-77
2023/05/14 03:09:01;;;;;;;7.33;3.27;;;11.00;99.90;;;;;;5075124;28;20453;-77
2023/05/14 03:11:28;;;;;;;3.97;2.43;;;11.00;99.90;;;;;;5074968;28;20489;-77
2023/05/14 03:13:55;;;;;;;4.57;2.60;;;11.00;99.90;;;;;;5074938;28;20466;-77
2023/05/14 03:16:21;;;;;;;5.47;2.20;;;11.00;99.90;;;;;;5074909;28;20452;-77
2023/05/14 03:18:48;;;;;;;3.10;2.37;;;11.10;99.90;;;;;;5074618;28;20503;-77
2023/05/14 03:21:15;;;;;;;2.60;2.20;;;11.10;99.90;;;;;;5073703;28;20441;-77
2023/05/14 03:23:43;;;;;;;2.70;1.93;;;11.10;99.90;;;;;;5074621;28;20476;-77
2023/05/14 03:26:10;;;;;;;3.53;2.60;;;11.10;99.90;;;;;;5074808;28;20450;-77
2023/05/14 03:28:36;;;;;;;6.27;2.20;;;11.10;99.90;;;;;;5074731;28;20450;-77
2023/05/14 03:31:03;;;;;;;3.53;2.10;;;11.10;99.90;;;;;;5074631;28;20449;-77
2023/05/14 03:33:30;;;;;;;3.20;2.23;;;11.10;99.90;;;;;;5074557;28;20468;-77
2023/05/14 03:35:56;;;;;;;3.13;1.93;;;11.10;99.90;;;;;;5074614;28;20452;-77
2023/05/14 03:38:23;;;;;;;3.83;2.30;;;11.10;99.90;;;;;;5074452;28;20457;-77
2023/05/14 03:40:51;;;;;;;4.60;2.63;;;11.10;99.90;;;;;;5074180;28;20460;-77
2023/05/14 03:43:18;;;;;;;3.17;2.47;;;11.10;99.90;;;;;;5074376;28;20469;-77
2023/05/14 03:45:44;;;;;;;4.57;2.50;;;11.10;99.90;;;;;;5074365;28;20453;-77
2023/05/14 03:48:11;;;;;;;3.60;2.10;;;11.10;99.90;;;;;;5074261;28;20483;-77
2023/05/14 03:50:38;;;;;;;2.30;2.07;;;11.10;99.90;;;;;;5074312;28;20549;-77
2023/05/14 03:53:05;;;;;;;5.20;2.03;;;11.10;99.90;;;;;;5074143;28;20484;-77
2023/05/14 03:55:32;;;;;;;5.43;4.20;;;11.10;99.90;;;;;;5073917;28;20457;-77
2023/05/14 03:58:00;;;;;;;6.77;3.93;;;11.10;99.90;;;;;;5074127;28;20792;-77
2023/05/14 04:00:27;;;;;;;3.30;1.83;;;11.10;99.90;;;;;;5074122;28;20488;-77
2023/05/14 04:02:54;;;;;;;3.47;2.80;;;11.10;99.90;;;;;;5073517;28;20485;-77
2023/05/14 04:05:20;;;;;;;3.60;2.90;;;11.10;99.90;;;;;;5073848;28;20453;-77
2023/05/14 04:07:47;;;;;;;3.30;1.67;;;11.10;99.90;;;;;;5073957;28;20448;-77
2023/05/14 04:10:14;;;;;;;3.03;2.00;;;11.10;99.90;;;;;;5073919;28;20453;-77
2023/05/14 04:12:41;;;;;;;4.70;2.50;;;11.10;99.90;;;;;;5073766;28;20489;-77
2023/05/14 04:15:10;;;;;;;5.50;2.90;;;11.10;99.90;;;;;;5073824;28;20455;-77
2023/05/14 04:17:37;;;;;;;2.93;2.20;;;11.10;99.90;;;;;;5073521;28;20441;-77
2023/05/14 04:20:04;;;;;;;3.90;2.07;;;11.10;99.90;;;;;;5074341;28;20504;-77
2023/05/14 04:22:31;;;;;;;4.63;3.70;;;11.10;99.90;;;;;;5073657;28;20462;-77
2023/05/14 04:24:57;;;;;;;2.70;2.27;;;11.10;99.90;;;;;;5073702;28;20540;-77
2023/05/14 04:27:24;;;;;;;4.77;2.17;;;11.10;99.90;;;;;;5073644;28;20454;-77
2023/05/14 04:29:51;;;;;;;4.33;2.80;;;11.10;99.90;;;;;;5073882;28;20445;-77
2023/05/14 04:32:19;;;;;;;4.23;2.73;;;11.10;99.90;;;;;;5073097;28;20477;-77
2023/05/14 04:34:46;;;;;;;2.10;1.60;;;11.10;99.90;;;;;;5073545;28;20456;-77
2023/05/14 04:37:13;;;;;;;4.90;2.60;;;11.10;99.90;;;;;;5073545;28;20445;-77
2023/05/14 04:39:40;;;;;;;8.80;2.90;;;11.10;99.90;;;;;;5073508;28;20445;-77
2023/05/14 04:42:07;;;;;;;4.10;1.83;;;11.20;99.90;;;;;;5073452;28;20846;-77
2023/05/14 04:44:33;;;;;;;1.63;1.27;;;11.20;99.90;;;;;;5073123;28;20847;-77
2023/05/14 04:47:00;;;;;;;3.43;1.83;;;11.20;99.90;;;;;;5073417;28;20441;-77
2023/05/14 04:49:29;;;;;;;5.27;2.57;;;11.20;99.90;;;;;;5073095;28;20464;-77
2023/05/14 04:51:55;;;;;;;1.83;1.43;;;11.20;99.90;;;;;;5073276;28;20484;-77
2023/05/14 04:54:22;;;;;;;4.50;2.80;;;11.20;99.90;;;;;;5073317;28;20512;-77
2023/05/14 04:56:50;;;;;;;9.20;3.20;;;11.20;99.90;;;;;;5073012;28;20449;-77
2023/05/14 04:59:17;;;;;;;3.00;2.33;;;11.20;99.90;;;;;;5073295;28;20445;-77
2023/05/14 05:01:44;;;;;;;8.80;2.70;;;11.20;99.90;;;;;;5072900;28;20485;-77
2023/05/14 05:04:10;;;;;;;5.83;3.10;;;11.20;99.90;;;;;;5073219;28;20572;-77
2023/05/14 05:06:38;;;;;;;4.80;3.10;;;11.20;99.90;;;;;;5073262;28;20483;-77
2023/05/14 05:09:05;;;;;;;3.77;2.30;;;11.20;99.90;;;;;;5073238;28;20457;-77
2023/05/14 05:11:31;;;;;;;11.17;1.93;;;11.20;99.90;;;;;;5073134;28;20453;-77
2023/05/14 05:13:58;;;;;;;2.83;2.20;;;11.20;99.90;;;;;;5073141;28;20477;-77
2023/05/14 05:16:25;;;;;;;3.00;2.70;;;11.20;99.90;;;;;;5073835;28;20507;-77
2023/05/14 05:18:52;;;;;;;4.10;2.87;;;11.20;99.90;;;;;;5073171;28;20449;-77
2023/05/14 05:21:18;;;;;;;6.93;3.27;;;11.20;99.90;;;;;;5073063;28;20453;-77
2023/05/14 05:23:46;;;;;;;4.47;2.47;;;11.20;99.90;;;;;;5072999;28;20466;-77
2023/05/14 05:26:13;;;;;;;3.90;2.37;;;11.20;99.90;;;;;;5073017;28;20445;-77
2023/05/14 05:28:40;;;;;;;5.00;2.93;;;11.20;99.90;;;;;;5072709;28;20790;-77
2023/05/14 05:31:06;;;;;;;4.80;2.80;;;11.20;99.90;;;;;;5073013;28;20430;-77
2023/05/14 05:33:34;;;;;;;6.60;2.40;;;11.30;99.90;;;;;;5072853;28;20496;-77
2023/05/14 05:36:01;;;;;;;2.70;2.33;;;11.30;99.90;;;;;;5072905;28;20453;-77
2023/05/14 05:38:28;;;;;;;5.83;2.70;;;11.30;99.90;;;;;;5072880;28;20489;-77
2023/05/14 05:40:56;;;;;;;6.50;3.23;;;11.40;99.90;;;;;;5072873;28;20453;-77
2023/05/14 05:43:23;;;;;;;4.30;2.80;;;11.40;99.90;;;;;;5072822;28;20513;-77
2023/05/14 05:45:49;;;;;;;3.33;2.20;;;11.40;99.90;;;;;;5076224;28;20457;-77
2023/05/14 05:48:16;;;;;;;3.70;1.90;;;11.40;99.90;;;;;;5076328;28;20964;-77
2023/05/14 05:50:46;;;;;;;5.43;2.90;;;11.40;99.90;;;;;;5076563;28;20448;-77
2023/05/14 05:53:15;;;;;;;5.30;3.00;;;11.40;99.90;;;;;;5076046;28;20996;-77
2023/05/14 05:55:42;;;;;;;4.93;2.07;;;11.40;99.90;;;;;;5076449;28;20457;-77
2023/05/14 05:58:11;;;;;;;3.10;1.83;;;11.40;99.90;;;;;;5076366;28;20462;-77
2023/05/14 06:00:38;;;;;;;2.17;1.80;;;11.40;99.90;;;;;;5076326;28;20461;-77
2023/05/14 06:03:04;;;;;;;3.20;2.20;;;11.40;99.90;;;;;;5075796;28;20988;-77
2023/05/14 06:05:31;;;;;;;4.33;3.53;;;11.40;99.90;;;;;;5076004;28;20964;-77
2023/05/14 06:07:58;;;;;;;4.40;2.33;;;11.30;99.90;;;;;;5076245;28;20456;-78
2023/05/14 06:10:24;;;;;;;6.53;2.50;;;11.20;99.90;;;;;;5076202;28;20461;-77
2023/05/14 06:12:51;;;;;;;4.23;2.50;;;11.20;99.90;;;;;;5076198;28;20486;-77
2023/05/14 06:15:19;;;;;;;2.33;1.70;;;11.10;99.90;;;;;;5076021;28;20457;-77
2023/05/14 06:17:46;;;;;;;4.17;2.33;;;11.10;99.90;;;;;;5077151;28;20453;-77
2023/05/14 06:20:13;;;;;;;4.40;2.30;;;11.00;99.90;;;;;;5076015;28;20449;-77
2023/05/14 06:22:40;;;;;;;6.03;2.97;;;11.00;99.90;;;;;;5075594;28;20461;-76
2023/05/14 06:25:08;;;;;;;6.63;2.33;;;11.00;99.90;;;;;;5075983;28;20457;-76
2023/05/14 06:27:34;;;;;;;7.50;2.57;;;11.00;99.90;;;;;;5075893;28;20451;-76
2023/05/14 06:30:01;;;;;;;5.83;2.47;;;11.00;99.90;;;;;;5075592;28;20949;-77
2023/05/14 06:32:29;;;;;;;6.40;2.77;;;11.00;99.90;;;;;;5075448;28;20485;-77
2023/05/14 06:34:56;;;;;;;3.87;1.80;;;11.00;99.90;;;;;;5075473;28;20985;-76
2023/05/14 06:37:23;;;;;;;3.40;2.00;;;11.10;99.90;;;;;;5075700;28;20438;-77
2023/05/14 06:39:49;;;;;;;2.70;2.17;;;11.10;99.90;;;;;;5075429;28;20434;-77
2023/05/14 06:42:16;;;;;;;7.10;2.53;;;11.10;99.90;;;;;;5075558;28;20529;-76
2023/05/14 06:44:43;;;;;;;3.30;2.07;;;11.00;99.90;;;;;;5075586;28;20445;-76
2023/05/14 06:47:10;;;;;;;5.43;2.80;;;11.00;99.90;;;;;;5075623;28;20533;-76
2023/05/14 06:49:39;;;;;;;4.20;2.43;;;11.00;99.90;;;;;;5075482;28;20815;-76
2023/05/14 06:52:06;;;;;;;4.57;1.87;;;11.10;99.90;;;;;;5075077;28;20453;-76
2023/05/14 06:54:33;;;;;;;4.83;2.97;;;11.10;99.90;;;;;;5075387;28;20461;-76
2023/05/14 06:57:00;;;;;;;3.63;2.50;;;11.10;99.90;;;;;;5075053;28;20800;-77
2023/05/14 06:59:27;;;;;;;4.17;2.57;;;11.20;99.90;;;;;;5075558;28;20453;-76
2023/05/14 07:01:54;;;;;;;4.20;2.50;;;11.20;99.90;;;;;;5075140;28;20849;-77
2023/05/14 07:04:21;;;;;;;4.00;2.83;;;11.30;99.90;;;;;;5075176;28;20472;-77
2023/05/14 07:06:49;;;;;;;5.97;3.17;;;11.40;99.90;;;;;;5075326;28;20551;-77
2023/05/14 07:09:16;;;;;;;4.57;2.93;;;11.50;99.90;;;;;;5075367;28;20464;-77
2023/05/14 07:11:43;;;;;;;6.60;3.67;;;11.60;99.90;;;;;;5075108;28;20457;-77
2023/05/14 07:14:09;;;;;;;7.83;3.40;;;11.70;99.90;;;;;;5074596;28;20493;-77
2023/05/14 07:16:37;;;;;;;3.70;2.67;;;11.70;99.90;;;;;;5075668;28;20449;-77
2023/05/14 07:19:03;;;;;;;5.27;3.43;;;11.70;99.90;;;;;;5074913;28;20453;-77
2023/05/14 07:21:30;;;;;;;4.77;3.03;;;11.70;99.90;;;;;;5075058;28;20450;-77
2023/05/14 07:23:58;;;;;;;6.50;3.00;;;11.80;99.90;;;;;;5074463;28;20468;-76
2023/05/14 07:26:25;;;;;;;7.40;3.13;;;11.90;99.90;;;;;;5074789;28;20552;-77
2023/05/14 07:28:52;;;;;;;6.43;3.40;;;12.00;99.90;;;;;;5074757;28;20449;-77
2023/05/14 07:31:18;;;;;;;8.03;2.90;;;12.10;99.90;;;;;;5074354;28;20449;-77
2023/05/14 07:33:45;;;;;;;7.20;3.03;;;12.10;99.90;;;;;;5074794;28;20473;-77
2023/05/14 07:36:12;;;;;;;5.27;2.87;;;12.30;99.90;;;;;;5074250;28;20941;-77
2023/05/14 07:38:39;;;;;;;4.33;3.10;;;12.30;99.90;;;;;;5074287;28;20446;-76
2023/05/14 07:41:07;;;;;;;6.00;3.17;;;12.30;99.90;;;;;;5074502;28;20453;-76
2023/05/14 07:43:34;;;;;;;4.30;2.93;;;12.40;99.90;;;;;;5074388;28;20470;-76
2023/05/14 07:46:01;;;;;;;5.63;3.20;;;12.40;99.90;;;;;;5074095;28;20450;-77
2023/05/14 07:48:27;;;;;;;6.73;2.80;;;12.40;99.90;;;;;;5074368;28;20453;-77
2023/05/14 07:50:54;;;;;;;7.20;2.87;;;12.40;99.90;;;;;;5074447;28;20461;-77
2023/05/14 07:53:22;;;;;;;5.40;3.00;;;12.50;99.90;;;;;;5073845;28;20996;-77
2023/05/14 07:55:49;;;;;;;2.47;2.27;;;12.60;99.90;;;;;;5074257;28;20528;-77
2023/05/14 07:58:17;;;;;;;3.13;2.50;;;12.60;99.90;;;;;;5074142;28;20859;-77
2023/05/14 08:00:44;;;;;;;4.50;2.40;;;12.70;99.90;;;;;;5073778;28;20821;-78
2023/05/14 08:03:10;;;;;;;9.33;5.03;;;12.90;99.90;;;;;;5073788;28;20480;-78
2023/05/14 08:05:37;;;;;;;5.00;2.37;;;13.00;99.90;;;;;;5074284;28;20445;-78
2023/05/14 08:08:04;;;;;;;5.57;3.77;;;13.10;99.90;;;;;;5073392;28;20445;-78
2023/05/14 08:10:31;;;;;;;7.17;4.00;;;13.30;99.90;;;;;;5073621;28;20988;-78
2023/05/14 08:12:58;;;;;;;4.30;2.80;;;13.40;99.90;;;;;;5073767;28;20488;-78
2023/05/14 08:15:26;;;;;;;6.27;3.17;;;13.50;99.90;;;;;;5073826;28;20453;-77
2023/05/14 08:17:52;;;;;;;4.10;2.50;;;13.70;99.90;;;;;;5073807;28;20449;-78
2023/05/14 08:20:19;;;;;;;5.40;3.60;;;13.80;99.90;;;;;;5073462;28;20792;-78
2023/05/14 08:22:46;;;;;;;3.37;2.80;;;13.80;99.90;;;;;;5073467;28;20980;-78
2023/05/14 08:25:13;;;;;;;6.83;3.07;;;13.90;99.90;;;;;;5073715;28;20449;-78
2023/05/14 08:27:40;;;;;;;4.80;2.70;;;14.00;99.90;;;;;;5073366;28;20451;-78
2023/05/14 08:30:07;;;;;;;5.60;3.73;;;14.20;99.90;;;;;;5073660;28;20449;-78
2023/05/14 08:32:37;;;;;;;4.50;2.77;;;14.40;99.90;;;;;;5073443;28;20520;-78
2023/05/14 08:35:04;;;;;;;3.40;2.23;;;14.50;99.90;;;;;;5073568;28;20452;-78
2023/05/14 08:37:31;;;;;;;4.03;2.73;;;14.60;99.90;;;;;;5073295;28;20450;-78
2023/05/14 08:39:57;;;;;;;5.70;3.23;;;14.50;99.90;;;;;;5073564;28;20434;-78
2023/05/14 08:42:25;;;;;;;4.13;3.33;;;14.70;99.90;;;;;;5073411;28;20477;-78
2023/05/14 08:44:57;;;;;;;9.47;3.63;;;14.80;99.90;;;;;;5073090;28;20453;-78
2023/05/14 08:47:25;;;;;;;4.80;2.83;;;15.10;99.90;;;;;;5073488;28;20430;-78
2023/05/14 08:50:00;;;;;;;4.90;2.63;;;15.40;99.90;;;;;;5073399;28;20449;-78
2023/05/14 08:52:28;;;;;;;4.33;3.27;;;15.30;99.90;;;;;;5073407;28;20436;-78
2023/05/14 08:54:55;;;;;;;4.60;3.10;;;15.40;99.90;;;;;;5073009;28;21011;-78
2023/05/14 08:57:25;;;;;;;4.10;2.70;;;15.50;99.90;;;;;;5073132;28;20449;-78
2023/05/14 08:59:52;;;;;;;7.77;4.00;;;15.50;99.90;;;;;;5073290;28;20452;-78
2023/05/14 09:02:22;;;;;;;4.73;2.73;;;15.60;99.90;;;;;;5073076;28;20492;-78
2023/05/14 09:04:53;;;;;;;4.80;2.90;;;15.60;99.90;;;;;;5073279;28;20453;-78
2023/05/14 09:07:22;;;;;;;10.23;3.57;;;15.70;99.90;;;;;;5073379;28;20429;-78
2023/05/14 09:09:49;;;;;;;4.33;2.90;;;15.70;99.90;;;;;;5072823;28;20453;-78
2023/05/14 09:12:16;;;;;;;5.00;3.00;;;15.80;99.90;;;;;;5072836;28;20449;-78
2023/05/14 09:14:43;;;;;;;3.70;3.20;;;16.10;99.90;;;;;;5073355;28;20485;-79
2023/05/14 09:17:11;;;;;;;6.33;3.60;;;16.40;99.90;;;;;;5073166;28;20524;-79
2023/05/14 09:19:39;;;;;;;5.60;3.20;;;16.70;99.90;;;;;;5076547;28;20445;-79
2023/05/14 09:22:08;;;;;;;5.53;3.30;;;17.00;99.90;;;;;;5077159;28;20454;-79
2023/05/14 09:24:37;;;;;;;5.50;2.97;;;17.20;99.90;;;;;;5076822;28;20963;-79
2023/05/14 09:27:05;;;;;;;6.20;4.00;;;17.50;99.90;;;;;;5077054;28;20450;-79
2023/05/14 09:29:32;;;;;;;4.80;2.57;;;17.60;99.90;;;;;;5076970;28;20449;-79
2023/05/14 09:32:03;;;;;;;6.73;2.93;;;17.70;99.90;;;;;;5077022;28;20464;-79
2023/05/14 09:34:31;;;;;;;4.50;3.07;;;17.80;99.90;;;;;;5076485;28;20898;-78
2023/05/14 09:37:00;;;;;;;5.23;3.47;;;17.80;99.90;;;;;;5076845;28;20449;-79
2023/05/14 09:39:28;;;;;;;4.50;2.70;;;17.80;99.90;;;;;;5076862;28;20452;-79
2023/05/14 09:41:56;;;;;;;6.13;2.97;;;17.70;99.90;;;;;;5076802;28;20460;-79
2023/05/14 09:44:24;;;;;;;4.87;3.60;;;17.50;99.90;;;;;;5076390;28;20461;-79
2023/05/14 09:46:52;;;;;;;5.40;3.13;;;17.40;99.90;;;;;;5076720;28;20449;-79
2023/05/14 09:49:19;;;;;;;7.77;4.23;;;17.10;99.90;;;;;;5076646;28;20445;-79
2023/05/14 09:51:46;;;;;;;4.00;2.97;;;17.00;99.90;;;;;;5076319;28;20977;-79
2023/05/14 09:54:13;;;;;;;5.80;4.10;;;16.80;99.90;;;;;;5076436;28;20487;-79
2023/05/14 09:56:39;;;;;;;4.73;3.87;;;16.60;99.90;;;;;;5076478;28;20449;-78
2023/05/14 09:59:07;;;;;;;6.10;3.30;;;16.30;99.90;;;;;;5076482;28;20468;-78
2023/05/14 10:01:35;;;;;;;4.30;3.13;;;16.10;99.90;;;;;;5076176;28;20590;-79
2023/05/14 10:04:06;;;;;;;4.63;2.63;;;16.00;99.90;;;;;;5076363;28;20470;-79
2023/05/14 10:06:36;;;;;;;4.90;3.50;;;15.80;99.90;;;;;;5076349;28;20434;-79
2023/05/14 10:09:05;;;;;;;3.30;2.40;;;15.70;99.90;;;;;;5076362;28;20442;-79
2023/05/14 10:11:34;;;;;;;5.83;2.93;;;15.60;99.90;;;;;;5076206;28;20454;-79
2023/05/14 10:14:05;;;;;;;5.20;2.93;;;15.50;99.90;;;;;;5075999;28;20492;-79
2023/05/14 10:16:34;;;;;;;4.03;2.60;;;15.50;99.90;;;;;;5075936;28;20914;-79
2023/05/14 10:19:06;;;;;;;4.13;2.67;;;15.40;99.90;;;;;;5076054;28;20811;-79
2023/05/14 10:21:35;;;;;;;4.10;2.53;;;15.40;99.90;;;;;;5076103;28;20437;-78
2023/05/14 10:24:03;;;;;;;3.10;2.40;;;15.50;99.90;;;;;;5075656;28;20981;-79
2023/05/14 10:26:30;;;;;;;4.80;3.23;;;15.60;99.90;;;;;;5075653;28;20442;-79
2023/05/14 10:28:58;;;;;;;3.77;2.10;;;15.80;99.90;;;;;;5075938;28;20462;-79
2023/05/14 10:31:45;;;;;;;3.53;2.20;;;16.00;99.90;;;;;;5075246;28;20449;-79
2023/05/14 10:34:36;;;;;;;2.33;1.80;;;16.30;99.90;;;;;;5075363;28;21012;-79
2023/05/14 10:37:04;;;;;;;2.73;1.87;;;16.60;99.90;;;;;;5075802;28;20449;-79
2023/05/14 10:39:45;;;;;;;3.17;1.73;;;16.70;99.90;;;;;;5075414;28;20973;-79
2023/05/14 10:42:12;;;;;;;2.97;1.67;;;16.90;99.90;;;;;;5075928;28;20532;-79
2023/05/14 10:44:47;;;;;;;2.00;1.80;;;17.00;99.90;;;;;;5075394;28;20442;-77
2023/05/14 10:47:14;;;;;;;1.93;1.20;;;17.20;99.90;;;;;;5075631;28;20813;-77
2023/05/14 10:49:44;;;;;;;3.13;1.43;;;17.50;99.90;;;;;;5075243;28;20468;-77
2023/05/14 10:52:11;;;;;;;3.07;1.83;;;17.60;99.90;;;;;;5075212;28;20937;-77
2023/05/14 10:54:38;;;;;;;1.60;1.50;;;17.60;99.90;;;;;;5075706;28;20968;-78
2023/05/14 10:57:11;;;;;;;2.00;1.70;;;17.80;99.90;;;;;;5075426;28;20449;-78
2023/05/14 10:59:42;;;;;;;2.77;1.80;;;17.90;99.90;;;;;;5075403;28;20461;-77
2023/05/14 11:02:20;;;;;;;3.60;1.87;;;17.90;99.90;;;;;;5075052;28;20581;-78
2023/05/14 11:04:56;;;;;;;2.43;1.53;;;17.90;99.90;;;;;;5075273;28;20524;-78
2023/05/14 11:07:25;;;;;;;2.43;1.63;;;17.90;99.90;;;;;;5075303;28;20433;-78
2023/05/14 11:09:52;;;;;;;3.17;2.10;;;18.00;99.90;;;;;;5075187;28;20445;-78
2023/05/14 11:12:19;;;;;;;1.80;1.70;;;18.20;99.90;;;;;;5075022;28;20450;-78
2023/05/14 11:14:47;;;;;;;4.40;2.73;;;18.40;99.90;;;;;;5074896;28;20485;-78
2023/05/14 11:17:16;;;;;;;3.97;3.57;;;18.60;99.90;;;;;;5074638;28;20963;-79
2023/05/14 11:19:44;;;;;;;5.13;3.13;;;18.80;99.90;;;;;;5074845;28;20813;-79
2023/05/14 11:22:13;;;;;;;4.07;3.00;;;18.80;99.90;;;;;;5074733;28;20450;-78
2023/05/14 11:24:40;;;;;;;2.20;2.00;;;18.90;99.90;;;;;;5074871;28;20442;-78
2023/05/14 11:27:08;;;;;;;6.00;2.50;;;18.80;99.90;;;;;;5074462;28;20485;-77
2023/05/14 11:29:35;;;;;;;2.33;2.03;;;18.80;99.90;;;;;;5074777;28;20518;-77
2023/05/14 11:32:02;;;;;;;3.50;2.17;;;18.60;99.90;;;;;;5074828;28;20450;-78
2023/05/14 11:34:29;;;;;;;2.40;1.83;;;18.40;99.90;;;;;;5074176;28;20489;-78
2023/05/14 11:36:56;;;;;;;2.90;2.30;;;18.10;99.90;;;;;;5074677;28;20501;-79
2023/05/14 11:39:24;;;;;;;4.27;2.53;;;17.90;99.90;;;;;;5074512;28;20464;-79
2023/05/14 11:41:51;;;;;;;3.30;2.10;;;17.70;99.90;;;;;;5073507;28;20445;-79
2023/05/14 11:44:17;;;;;;;2.47;1.70;;;17.60;99.90;;;;;;5073994;28;20845;-78
2023/05/14 11:46:54;;;;;;;2.90;2.10;;;17.60;99.90;;;;;;5074344;28;20450;-78
2023/05/14 11:49:22;;;;;;;4.10;2.37;;;17.50;99.90;;;;;;5074356;28;20434;-79
2023/05/14 11:51:49;;;;;;;2.30;1.87;;;17.50;99.90;;;;;;5073972;28;21005;-79
2023/05/14 11:54:15;;;;;;;3.03;2.20;;;17.60;99.90;;;;;;5074118;28;20492;-79
2023/05/14 11:56:49;;;;;;;2.27;1.53;;;17.80;99.90;;;;;;5074303;28;20458;-79
2023/05/14 11:59:17;;;;;;;3.90;2.23;;;18.20;99.90;;;;;;5074184;28;20434;-78
2023/05/14 12:01:44;;;;;;;3.17;2.40;;;18.40;99.90;;;;;;5074015;28;20482;-79
2023/05/14 12:04:21;;;;;;;3.87;2.40;;;18.40;99.90;;;;;;5091324;28;20867;-79
2023/05/14 12:06:48;;;;;;;3.30;1.73;;;18.20;99.90;;;;;;5090926;28;20439;-79
2023/05/14 12:09:16;;;;;;;4.27;2.87;;;18.00;99.90;;;;;;5090455;28;20944;-79
2023/05/14 12:11:43;;;;;;;3.10;2.47;;;17.80;99.90;;;;;;5090698;28;20444;-79
2023/05/14 12:14:15;;;;;;;3.50;2.00;;;17.70;99.90;;;;;;5090559;28;20484;-79
2023/05/14 12:16:44;;;;;;;6.00;2.97;;;17.50;99.90;;;;;;5090702;28;20452;-78
2023/05/14 12:19:13;;;;;;;3.37;2.03;;;17.40;99.90;;;;;;5090584;28;20453;-79
2023/05/14 12:21:43;;;;;;;2.63;2.13;;;17.20;99.90;;;;;;5090564;28;20477;-79
2023/05/14 12:24:11;;;;;;;4.23;2.13;;;17.10;99.90;;;;;;5090801;28;20456;-79
2023/05/14 12:26:38;;;;;;;5.33;2.87;;;16.90;99.90;;;;;;5090487;28;20455;-79
2023/05/14 12:29:06;;;;;;;2.53;2.33;;;17.00;99.90;;;;;;5090142;28;20453;-79
2023/05/14 12:31:35;;;;;;;3.03;2.47;;;17.10;99.90;;;;;;5090405;28;20444;-79
2023/05/14 12:34:03;;;;;;;2.80;1.70;;;17.10;99.90;;;;;;5089814;28;20541;-79
2023/05/14 12:36:31;;;;;;;2.30;1.80;;;17.10;99.90;;;;;;5090378;28;20497;-79
2023/05/14 12:39:02;;;;;;;2.67;1.63;;;17.30;99.90;;;;;;5090374;28;20431;-79
2023/05/14 12:41:29;;;;;;;9.03;2.27;;;17.20;99.90;;;;;;5090309;28;20425;-79
2023/05/14 12:43:55;;;;;;;3.50;2.03;;;17.10;99.90;;;;;;5090136;28;20461;-79
2023/05/14 12:46:22;;;;;;;1.97;1.60;;;16.70;99.90;;;;;;5090109;28;20456;-79
2023/05/14 12:48:49;;;;;;;2.63;1.73;;;16.40;99.90;;;;;;5090131;28;20449;-82
2023/05/14 12:51:16;;;;;;;5.07;2.73;;;16.10;99.90;;;;;;5090094;28;20460;-79